Time,TemperatureF,DewpointF,PressureIn,WindDirection,WindDirectionDegrees,WindSpeedMPH,WindSpeedGustMPH,Humidity,HourlyPrecipIn,Conditions,Clouds,dailyrainin,SoftwareType,DateUTC
2013-05-22 00:12:00,61.7,56.0,29.97,NNW,333,0.0,3.0,81,0.00,,,0.00,weatherlink.com 1.10,2013-05-22 04:12:00,
2013-05-22 00:27:00,60.4,57.0,29.96,North,360,0.0,2.0,87,0.00,,,0.00,weatherlink.com 1.10,2013-05-22 04:27:00,
2013-05-22 00:42:00,59.5,57.0,29.96,North,360,0.0,1.0,90,0.00,,,0.00,weatherlink.com 1.10,2013-05-22 04:42:00,
2013-05-22 00:57:00,59.8,57.0,29.96,North,5,1.0,2.0,89,0.00,,,0.00,weatherlink.com 1.10,2013-05-22 04:57:00,
2013-05-22 01:12:00,61.0,58.0,29.96,North,5,1.0,3.0,88,0.00,,,0.00,weatherlink.com 1.10,2013-05-22 05:12:00,
2013-05-22 01:27:00,61.3,57.0,29.96,North,5,0.0,2.0,86,0.00,,,0.00,weatherlink.com 1.10,2013-05-22 05:27:00,
2013-05-22 01:42:00,60.7,57.0,29.95,NE,39,1.0,5.0,86,0.00,,,0.00,weatherlink.com 1.10,2013-05-22 05:42:00,
2013-05-22 01:57:00,60.5,57.0,29.95,NNE,15,1.0,5.0,87,0.00,,,0.00,weatherlink.com 1.10,2013-05-22 05:57:00,
2013-05-22 02:12:00,60.4,58.0,29.95,NE,39,0.0,3.0,91,0.00,,,0.00,weatherlink.com 1.10,2013-05-22 06:12:00,
2013-05-22 02:27:00,60.4,58.0,29.94,North,355,0.0,4.0,92,0.00,,,0.00,weatherlink.com 1.10,2013-05-22 06:27:00,
2013-05-22 02:42:00,60.3,58.0,29.94,ENE,65,0.0,1.0,92,0.00,,,0.00,weatherlink.com 1.10,2013-05-22 06:42:00,
2013-05-22 02:57:00,59.9,58.0,29.93,ENE,65,0.0,4.0,92,0.00,,,0.00,weatherlink.com 1.10,2013-05-22 06:57:00,
2013-05-22 03:12:00,59.9,58.0,29.91,East,85,0.0,4.0,94,0.00,,,0.00,weatherlink.com 1.10,2013-05-22 07:12:00,
2013-05-22 03:27:00,60.1,58.0,29.91,SE,126,0.0,4.0,93,0.00,,,0.00,weatherlink.com 1.10,2013-05-22 07:27:00,
2013-05-22 03:42:00,60.1,58.0,29.91,SE,145,0.0,3.0,92,0.00,,,0.00,weatherlink.com 1.10,2013-05-22 07:42:00,
2013-05-22 03:57:00,60.0,58.0,29.90,SE,135,1.0,2.0,92,0.00,,,0.00,weatherlink.com 1.10,2013-05-22 07:57:00,
2013-05-22 04:12:00,59.4,57.0,29.91,SE,134,0.0,2.0,93,0.00,,,0.00,weatherlink.com 1.10,2013-05-22 08:12:00,
2013-05-22 04:27:00,60.0,57.0,29.90,ENE,66,0.0,4.0,91,0.00,,,0.00,weatherlink.com 1.10,2013-05-22 08:27:00,
2013-05-22 04:42:00,60.3,58.0,29.90,ENE,66,0.0,3.0,91,0.00,,,0.00,weatherlink.com 1.10,2013-05-22 08:42:00,
2013-05-22 04:57:00,60.2,58.0,29.91,ESE,104,1.0,3.0,91,0.00,,,0.00,weatherlink.com 1.10,2013-05-22 08:57:00,
2013-05-22 05:12:00,59.5,57.0,29.91,South,175,0.0,3.0,92,0.00,,,0.00,weatherlink.com 1.10,2013-05-22 09:12:00,
2013-05-22 05:27:00,59.1,57.0,29.92,WSW,252,2.0,5.0,93,0.00,,,0.00,weatherlink.com 1.10,2013-05-22 09:27:00,
2013-05-22 05:42:00,59.6,57.0,29.92,NNE,17,0.0,4.0,90,0.00,,,0.00,weatherlink.com 1.10,2013-05-22 09:42:00,
2013-05-22 05:57:00,59.7,57.0,29.93,NE,53,2.0,7.0,91,0.00,,,0.00,weatherlink.com 1.10,2013-05-22 09:57:00,
2013-05-22 06:12:00,59.9,58.0,29.93,NE,53,1.0,4.0,93,0.00,,,0.00,weatherlink.com 1.10,2013-05-22 10:12:00,
2013-05-22 06:28:00,60.2,58.0,29.93,NE,46,0.0,4.0,93,0.00,,,0.00,weatherlink.com 1.10,2013-05-22 10:28:00,
2013-05-22 06:43:00,60.0,58.0,29.94,NE,48,0.0,3.0,94,0.00,,,0.00,weatherlink.com 1.10,2013-05-22 10:43:00,
2013-05-22 06:58:00,59.8,58.0,29.94,NE,34,1.0,3.0,95,0.00,,,0.00,weatherlink.com 1.10,2013-05-22 10:58:00,
2013-05-22 07:13:00,60.1,59.0,29.94,NE,47,0.0,3.0,95,0.00,,,0.00,weatherlink.com 1.10,2013-05-22 11:13:00,
2013-05-22 07:28:00,60.2,59.0,29.94,NE,41,0.0,5.0,95,0.00,,,0.00,weatherlink.com 1.10,2013-05-22 11:28:00,
2013-05-22 07:35:00,60.2,58.8,29.94,NE,55,1.0,2.0,95,0.00,,,0.00,Wunderground v.1.15,2013-05-22 11:35:00,
2013-05-22 07:40:00,60.3,59.2,29.94,NE,55,1.0,1.0,96,0.00,,,0.00,Wunderground v.1.15,2013-05-22 11:40:00,
2013-05-22 07:50:00,60.5,59.4,29.94,NE,55,1.0,1.0,96,0.00,,,0.00,Wunderground v.1.15,2013-05-22 11:50:00,
2013-05-22 07:55:00,60.7,59.3,29.94,NE,55,0.0,3.0,95,0.00,,,0.00,Wunderground v.1.15,2013-05-22 11:55:00,
2013-05-22 08:00:00,60.9,59.5,29.95,NE,52,1.0,1.0,95,0.00,,,0.00,Wunderground v.1.15,2013-05-22 12:00:00,
2013-05-22 08:10:00,60.9,59.5,29.94,NE,52,0.0,0.0,95,0.00,,,0.00,Wunderground v.1.15,2013-05-22 12:10:00,
2013-05-22 08:16:00,61.0,60.0,29.94,NE,53,0.0,1.0,95,0.00,,,0.00,weatherlink.com 1.10,2013-05-22 12:16:00,
2013-05-22 08:25:00,61.3,59.9,29.94,NE,53,0.0,0.0,95,0.00,,,0.00,Wunderground v.1.15,2013-05-22 12:25:00,
2013-05-22 08:30:00,61.6,60.2,29.94,NE,53,0.0,0.0,95,0.00,,,0.00,Wunderground v.1.15,2013-05-22 12:30:00,
2013-05-22 08:40:00,61.9,60.2,29.94,NE,53,1.0,1.0,94,0.00,,,0.00,Wunderground v.1.15,2013-05-22 12:40:00,
2013-05-22 08:46:00,62.3,60.0,29.94,NE,53,0.0,2.0,93,0.00,,,0.00,weatherlink.com 1.10,2013-05-22 12:46:00,
2013-05-22 08:55:00,62.6,60.5,29.94,NE,53,0.0,0.0,93,0.00,,,0.00,Wunderground v.1.15,2013-05-22 12:55:00,
2013-05-22 09:05:00,62.5,60.1,29.94,NE,53,0.0,0.0,92,0.00,,,0.00,Wunderground v.1.15,2013-05-22 13:05:00,
2013-05-22 09:10:00,62.3,60.2,29.94,NE,53,0.0,0.0,93,0.00,,,0.00,Wunderground v.1.15,2013-05-22 13:10:00,
2013-05-22 09:16:00,62.6,61.0,29.94,NE,53,1.0,2.0,94,0.00,,,0.00,weatherlink.com 1.10,2013-05-22 13:16:00,
2013-05-22 09:25:00,63.1,61.0,29.95,NE,53,0.0,1.0,93,0.00,,,0.00,Wunderground v.1.15,2013-05-22 13:25:00,
2013-05-22 09:30:00,63.2,61.1,29.94,NE,53,0.0,1.0,93,0.00,,,0.00,Wunderground v.1.15,2013-05-22 13:30:00,
2013-05-22 09:40:00,63.6,61.5,29.94,NE,53,0.0,3.0,93,0.00,,,0.00,Wunderground v.1.15,2013-05-22 13:40:00,
2013-05-22 09:46:00,63.9,62.0,29.94,WNW,284,0.0,3.0,92,0.00,,,0.00,weatherlink.com 1.10,2013-05-22 13:46:00,
2013-05-22 09:55:00,64.3,61.6,29.94,NE,49,0.0,0.0,91,0.00,,,0.00,Wunderground v.1.15,2013-05-22 13:55:00,
2013-05-22 10:00:00,64.7,62.0,29.94,WSW,251,1.0,4.0,91,0.00,,,0.00,weatherlink.com 1.10,2013-05-22 14:00:00,
2013-05-22 10:10:00,64.7,62.0,29.94,NNW,348,1.0,1.0,91,0.00,,,0.00,Wunderground v.1.15,2013-05-22 14:10:00,
2013-05-22 10:16:00,64.3,61.0,29.94,NNW,348,0.0,3.0,90,0.00,,,0.00,weatherlink.com 1.10,2013-05-22 14:16:00,
2013-05-22 10:25:00,64.6,62.2,29.95,WNW,292,1.0,1.0,92,0.00,,,0.00,Wunderground v.1.15,2013-05-22 14:25:00,
2013-05-22 10:30:00,64.7,62.0,29.95,WNW,285,1.0,4.0,91,0.00,,,0.00,weatherlink.com 1.10,2013-05-22 14:30:00,
2013-05-22 10:40:00,65.3,62.9,29.94,West,280,1.0,2.0,92,0.00,,,0.00,Wunderground v.1.15,2013-05-22 14:40:00,
2013-05-22 10:46:00,65.4,63.0,29.94,NW,324,1.0,5.0,92,0.00,,,0.00,weatherlink.com 1.10,2013-05-22 14:46:00,
2013-05-22 10:55:00,65.2,62.2,29.94,WSW,254,1.0,3.0,90,0.00,,,0.00,Wunderground v.1.15,2013-05-22 14:55:00,
2013-05-22 11:00:00,65.0,62.0,29.94,WSW,255,0.0,4.0,89,0.00,,,0.00,weatherlink.com 1.10,2013-05-22 15:00:00,
2013-05-22 11:10:00,64.9,62.8,29.94,WSW,250,2.0,2.0,93,0.00,,,0.00,Wunderground v.1.15,2013-05-22 15:10:00,
2013-05-22 11:16:00,65.1,63.0,29.94,West,271,1.0,5.0,91,0.00,,,0.00,weatherlink.com 1.10,2013-05-22 15:16:00,
2013-05-22 11:25:00,65.1,62.7,29.94,West,259,1.0,3.0,92,0.00,,,0.00,Wunderground v.1.15,2013-05-22 15:25:00,
2013-05-22 11:31:00,65.4,63.0,29.95,NW,304,2.0,4.0,91,0.00,,,0.00,weatherlink.com 1.10,2013-05-22 15:31:00,
2013-05-22 11:40:00,66.1,62.8,29.95,West,279,2.0,2.0,89,0.00,,,0.00,Wunderground v.1.15,2013-05-22 15:40:00,
2013-05-22 11:46:00,66.5,63.0,29.95,West,261,3.0,5.0,89,0.00,,,0.00,weatherlink.com 1.10,2013-05-22 15:46:00,
2013-05-22 11:55:00,67.2,63.8,29.95,WSW,246,2.0,2.0,89,0.00,,,0.00,Wunderground v.1.15,2013-05-22 15:55:00,
2013-05-22 12:00:00,67.7,63.4,29.94,WSW,243,1.0,2.0,86,0.00,,,0.00,Wunderground v.1.15,2013-05-22 16:00:00,
2013-05-22 12:10:00,68.3,63.9,29.94,WSW,237,2.0,3.0,86,0.00,,,0.00,Wunderground v.1.15,2013-05-22 16:10:00,
2013-05-22 12:16:00,68.9,65.0,29.94,NW,316,1.0,5.0,86,0.00,,,0.00,weatherlink.com 1.10,2013-05-22 16:16:00,
2013-05-22 12:25:00,69.8,64.4,29.94,WSW,243,1.0,2.0,83,0.00,,,0.00,Wunderground v.1.15,2013-05-22 16:25:00,
2013-05-22 12:30:00,69.7,62.9,29.94,WSW,240,2.0,3.0,79,0.00,,,0.00,Wunderground v.1.15,2013-05-22 16:30:00,
2013-05-22 12:40:00,70.1,63.6,29.94,WSW,246,2.0,3.0,80,0.00,,,0.00,Wunderground v.1.15,2013-05-22 16:40:00,
2013-05-22 12:45:00,69.8,61.9,29.94,WSW,246,2.0,6.0,76,0.00,,,0.00,Wunderground v.1.15,2013-05-22 16:45:00,
2013-05-22 12:55:00,70.2,63.0,29.93,WNW,292,2.0,3.0,78,0.00,,,0.00,Wunderground v.1.15,2013-05-22 16:55:00,
2013-05-22 13:00:00,70.4,62.5,29.94,WSW,243,2.0,3.0,76,0.00,,,0.00,Wunderground v.1.15,2013-05-22 17:00:00,
2013-05-22 13:10:00,70.7,65.3,29.93,WSW,254,2.0,2.0,83,0.00,,,0.00,Wunderground v.1.15,2013-05-22 17:10:00,
2013-05-22 13:17:00,71.5,63.0,29.93,West,269,4.0,5.0,75,0.00,,,0.00,weatherlink.com 1.10,2013-05-22 17:17:00,
2013-05-22 13:25:00,71.5,63.2,29.92,North,5,2.0,3.0,75,0.00,,,0.00,Wunderground v.1.15,2013-05-22 17:25:00,
2013-05-22 13:30:00,71.0,63.8,29.92,NNW,338,2.0,2.0,78,0.00,,,0.00,Wunderground v.1.15,2013-05-22 17:30:00,
2013-05-22 13:40:00,71.3,64.1,29.91,WNW,288,2.0,2.0,78,0.00,,,0.00,Wunderground v.1.15,2013-05-22 17:40:00,
2013-05-22 13:47:00,71.4,65.0,29.91,NW,325,1.0,5.0,79,0.00,,,0.00,weatherlink.com 1.10,2013-05-22 17:47:00,
2013-05-22 13:55:00,72.4,64.8,29.91,NW,323,2.0,2.0,77,0.00,,,0.00,Wunderground v.1.15,2013-05-22 17:55:00,
2013-05-22 14:00:00,72.8,65.5,29.91,WNW,297,2.0,2.0,78,0.00,,,0.00,Wunderground v.1.15,2013-05-22 18:00:00,
2013-05-22 14:10:00,71.9,63.2,29.90,NNW,333,3.0,3.0,74,0.00,,,0.00,Wunderground v.1.15,2013-05-22 18:10:00,
2013-05-22 14:15:00,71.0,63.1,29.90,NNW,346,2.0,3.0,76,0.00,,,0.00,Wunderground v.1.15,2013-05-22 18:15:00,
2013-05-22 14:20:00,70.1,64.3,29.89,ENE,63,2.0,2.0,82,0.00,,,0.00,Wunderground v.1.15,2013-05-22 18:20:00,
2013-05-22 14:30:00,69.5,65.1,29.88,East,89,1.0,1.0,86,0.00,,,0.00,Wunderground v.1.15,2013-05-22 18:30:00,
2013-05-22 14:40:00,69.9,62.4,29.89,NW,304,1.0,3.0,77,0.00,,,0.00,Wunderground v.1.15,2013-05-22 18:40:00,
2013-05-22 14:45:00,68.7,61.6,29.90,WNW,286,4.0,5.0,78,0.00,,,0.00,Wunderground v.1.15,2013-05-22 18:45:00,
2013-05-22 14:55:00,66.3,60.3,29.89,WNW,298,5.0,5.0,81,0.00,,,0.01,Wunderground v.1.15,2013-05-22 18:55:00,
2013-05-22 15:00:00,65.2,60.9,29.89,West,275,5.0,5.0,86,0.00,,,0.01,Wunderground v.1.15,2013-05-22 19:00:00,
2013-05-22 15:10:00,64.1,61.1,29.89,NW,309,3.0,3.0,90,0.00,,,0.01,Wunderground v.1.15,2013-05-22 19:10:00,
2013-05-22 15:18:00,63.7,61.0,29.88,West,281,4.0,5.0,92,0.01,,,0.01,weatherlink.com 1.10,2013-05-22 19:18:00,
2013-05-22 15:25:00,62.7,59.4,29.89,WNW,302,5.0,11.0,89,0.00,,,0.01,Wunderground v.1.15,2013-05-22 19:25:00,
2013-05-22 15:30:00,61.9,57.3,29.89,NNW,327,7.0,15.0,85,0.00,,,0.01,Wunderground v.1.15,2013-05-22 19:30:00,
2013-05-22 15:35:00,59.2,54.0,29.89,West,279,10.0,15.0,83,0.76,,,0.05,Wunderground v.1.15,2013-05-22 19:35:00,
2013-05-22 15:45:00,57.7,55.1,29.87,WSW,257,8.0,11.0,91,0.08,,,0.07,Wunderground v.1.15,2013-05-22 19:45:00,
2013-05-22 15:50:00,58.1,54.6,29.88,SW,224,7.0,7.0,88,0.05,,,0.07,Wunderground v.1.15,2013-05-22 19:50:00,
2013-05-22 15:55:00,60.3,57.0,29.88,West,273,5.0,7.0,89,0.00,,,0.07,Wunderground v.1.15,2013-05-22 19:55:00,
2013-05-22 16:00:00,61.9,57.7,29.87,WSW,248,3.0,3.0,86,0.00,,,0.07,Wunderground v.1.15,2013-05-22 20:00:00,
2013-05-22 16:10:00,63.6,58.7,29.88,SW,236,3.0,3.0,84,0.00,,,0.07,Wunderground v.1.15,2013-05-22 20:10:00,
2013-05-22 16:15:00,63.8,58.9,29.88,WSW,238,2.0,3.0,84,0.00,,,0.07,Wunderground v.1.15,2013-05-22 20:15:00,
2013-05-22 16:20:00,64.0,59.1,29.87,NE,53,2.0,2.0,84,0.00,,,0.08,Wunderground v.1.15,2013-05-22 20:20:00,
2013-05-22 16:25:00,63.8,60.2,29.87,SSE,150,2.0,2.0,88,0.00,,,0.08,Wunderground v.1.15,2013-05-22 20:25:00,
2013-05-22 16:35:00,63.2,59.3,29.87,NE,40,2.0,2.0,87,0.00,,,0.08,Wunderground v.1.15,2013-05-22 20:35:00,
2013-05-22 16:40:00,63.4,59.8,29.86,West,259,1.0,3.0,88,0.00,,,0.08,Wunderground v.1.15,2013-05-22 20:40:00,
2013-05-22 16:45:00,64.0,61.0,29.85,NW,309,2.0,3.0,90,0.00,,,0.08,Wunderground v.1.15,2013-05-22 20:45:00,
2013-05-22 16:50:00,64.3,60.0,29.85,WNW,292,2.0,2.0,86,0.00,,,0.08,Wunderground v.1.15,2013-05-22 20:50:00,
2013-05-22 17:00:00,65.0,62.0,29.85,WNW,295,0.0,0.0,90,0.00,,,0.08,Wunderground v.1.15,2013-05-22 21:00:00,
2013-05-22 17:05:00,65.7,62.7,29.86,WNW,300,1.0,1.0,90,0.00,,,0.08,Wunderground v.1.15,2013-05-22 21:05:00,
2013-05-22 17:15:00,67.2,64.2,29.85,NNW,344,0.0,1.0,90,0.00,,,0.08,Wunderground v.1.15,2013-05-22 21:15:00,
2013-05-22 17:20:00,67.9,66.0,29.86,NNW,344,0.0,2.0,92,0.00,,,0.08,weatherlink.com 1.10,2013-05-22 21:20:00,
2013-05-22 17:30:00,68.5,63.5,29.85,NNW,344,0.0,1.0,84,0.00,,,0.08,Wunderground v.1.15,2013-05-22 21:30:00,
2013-05-22 17:36:00,68.6,64.0,29.85,NNW,344,1.0,2.0,86,0.00,,,0.08,weatherlink.com 1.10,2013-05-22 21:36:00,
2013-05-22 17:45:00,68.0,64.0,29.85,North,5,0.0,1.0,87,0.00,,,0.08,Wunderground v.1.15,2013-05-22 21:45:00,
2013-05-22 17:50:00,67.9,63.9,29.85,North,5,0.0,1.0,87,0.00,,,0.08,Wunderground v.1.15,2013-05-22 21:50:00,
2013-05-22 18:00:00,67.4,64.0,29.84,WNW,290,1.0,1.0,89,0.00,,,0.08,Wunderground v.1.15,2013-05-22 22:00:00,
2013-05-22 18:06:00,67.5,64.0,29.84,West,274,2.0,4.0,88,0.00,,,0.08,weatherlink.com 1.10,2013-05-22 22:06:00,
2013-05-22 18:15:00,66.8,63.5,29.85,WSW,241,2.0,4.0,89,0.00,,,0.08,Wunderground v.1.15,2013-05-22 22:15:00,
2013-05-22 18:20:00,66.2,62.5,29.86,NW,314,3.0,3.0,88,0.00,,,0.08,Wunderground v.1.15,2013-05-22 22:20:00,
2013-05-22 18:30:00,65.1,62.7,29.86,WSW,239,4.0,4.0,92,0.00,,,0.08,Wunderground v.1.15,2013-05-22 22:30:00,
2013-05-22 18:36:00,64.1,62.0,29.87,NNE,17,8.0,8.0,91,0.02,,,0.10,weatherlink.com 1.10,2013-05-22 22:36:00,
2013-05-22 18:51:00,62.5,60.0,29.86,NE,38,1.0,8.0,90,0.18,,,0.26,weatherlink.com 1.10,2013-05-22 22:51:00,
2013-05-22 19:06:00,63.3,62.0,29.86,NNE,26,0.0,3.0,94,0.18,,,0.26,weatherlink.com 1.10,2013-05-22 23:06:00,
2013-05-22 19:21:00,63.2,62.0,29.85,NNE,28,0.0,2.0,94,0.18,,,0.26,weatherlink.com 1.10,2013-05-22 23:21:00,
2013-05-22 19:36:00,62.8,61.0,29.85,NNE,18,4.0,5.0,95,0.15,,,0.26,weatherlink.com 1.10,2013-05-22 23:36:00,
2013-05-22 19:51:00,62.8,61.0,29.86,West,269,1.0,4.0,95,0.00,,,0.26,weatherlink.com 1.10,2013-05-22 23:51:00,
2013-05-22 20:06:00,62.5,61.0,29.86,WNW,294,2.0,8.0,95,0.00,,,0.26,weatherlink.com 1.10,2013-05-23 00:06:00,
2013-05-22 20:21:00,60.4,59.0,29.87,NW,317,2.0,11.0,95,0.08,,,0.34,weatherlink.com 1.10,2013-05-23 00:21:00,
2013-05-22 20:36:00,59.6,59.0,29.89,West,271,4.0,6.0,96,0.22,,,0.48,weatherlink.com 1.10,2013-05-23 00:36:00,
2013-05-22 20:51:00,59.4,58.0,29.88,WNW,290,2.0,6.0,94,0.22,,,0.48,weatherlink.com 1.10,2013-05-23 00:51:00,
2013-05-22 21:06:00,59.6,57.0,29.89,WSW,244,3.0,7.0,90,0.22,,,0.48,weatherlink.com 1.10,2013-05-23 01:06:00,
2013-05-22 21:21:00,60.1,57.0,29.89,WSW,240,1.0,6.0,89,0.13,,,0.48,weatherlink.com 1.10,2013-05-23 01:21:00,
2013-05-22 21:36:00,60.3,58.0,29.90,SW,229,0.0,5.0,91,0.00,,,0.48,weatherlink.com 1.10,2013-05-23 01:36:00,
2013-05-22 21:51:00,60.0,58.0,29.90,SW,234,0.0,3.0,92,0.00,,,0.48,weatherlink.com 1.10,2013-05-23 01:51:00,
2013-05-22 22:06:00,60.1,58.0,29.90,SSW,207,2.0,3.0,94,0.00,,,0.48,weatherlink.com 1.10,2013-05-23 02:06:00,
2013-05-22 22:21:00,60.5,58.0,29.90,SSW,209,1.0,4.0,91,0.00,,,0.48,weatherlink.com 1.10,2013-05-23 02:21:00,
2013-05-22 22:36:00,60.6,58.0,29.91,SW,215,2.0,5.0,90,0.00,,,0.48,weatherlink.com 1.10,2013-05-23 02:36:00,
2013-05-22 22:51:00,60.5,58.0,29.92,SW,215,0.0,4.0,91,0.00,,,0.48,weatherlink.com 1.10,2013-05-23 02:51:00,
2013-05-22 23:21:00,60.7,58.0,29.91,WSW,237,1.0,3.0,91,0.00,,,0.48,weatherlink.com 1.10,2013-05-23 03:21:00,
2013-05-22 23:36:00,61.1,58.0,29.91,SSW,211,1.0,4.0,90,0.00,,,0.48,weatherlink.com 1.10,2013-05-23 03:36:00,
2013-05-22 23:51:00,60.8,58.0,29.91,WSW,255,2.0,5.0,90,0.00,,,0.48,weatherlink.com 1.10,2013-05-23 03:51:00,